Time;durP1;ratioP1;P1;durP2;ratioP2;P2;SDS_P1;SDS_P2;PMS_P1;PMS_P2;Temp;Humidity;BMP_temperature;BMP_pressure;BME280_temperature;BME280_humidity;BME280_pressure;Samples;Min_cycle;Max_cycle;Signal;HPM_P1;HPM_P2
2023/10/14 00:04:30;;;;;;;;;;;;;;;22.52;47.04;95230.59;10432917;28;1910;-59
2023/10/14 00:09:37;;;;;;;;;;;;;;;22.53;46.74;95232.94;10435068;28;1869;-59
2023/10/14 00:14:37;;;;;;;;;;;;;;;22.52;46.92;95215.50;10433523;28;2577;-59
2023/10/14 00:19:38;;;;;;;;;;;;;;;22.53;46.87;95216.28;10433720;28;1952;-59
2023/10/14 00:24:39;;;;;;;;;;;;;;;22.51;46.85;95221.88;10431134;28;2105;-59
2023/10/14 00:29:39;;;;;;;;;;;;;;;22.52;46.85;95217.38;10434466;28;1921;-59
2023/10/14 00:34:42;;;;;;;;;;;;;;;22.51;46.83;95224.53;10433881;28;2025;-59
2023/10/14 00:39:43;;;;;;;;;;;;;;;22.52;46.81;95214.75;10425646;28;2144;-59
2023/10/14 00:44:43;;;;;;;;;;;;;;;22.52;46.99;95218.16;10437293;28;4563;-59
2023/10/14 00:49:43;;;;;;;;;;;;;;;22.52;46.85;95209.47;10441137;28;1889;-59
2023/10/14 00:59:48;;;;;;;;;;;;;;;22.52;47.10;95207.59;10439867;28;2499;-59
2023/10/14 01:04:53;;;;;;;;;;;;;;;22.52;47.05;95209.47;10438044;28;1979;-59
2023/10/14 01:09:53;;;;;;;;;;;;;;;22.52;46.90;95209.47;10440458;28;2456;-60
2023/10/14 01:14:54;;;;;;;;;;;;;;;22.52;47.05;95212.09;10440916;28;1963;-59
2023/10/14 01:19:55;;;;;;;;;;;;;;;22.51;47.13;95206.03;10438158;28;1954;-59
2023/10/14 01:24:55;;;;;;;;;;;;;;;22.51;46.87;95197.31;10441324;28;2043;-59
2023/10/14 01:29:55;;;;;;;;;;;;;;;22.51;46.77;95203.41;10439183;28;1939;-59
2023/10/14 01:35:00;;;;;;;;;;;;;;;22.50;46.85;95196.53;10438258;28;2047;-59
2023/10/14 01:45:31;;;;;;;;;;;;;;;22.50;46.91;95177.28;10423665;28;4725;-58
2023/10/14 01:50:32;;;;;;;;;;;;;;;22.50;47.12;95180.69;10439111;28;2138;-59
2023/10/14 01:55:34;;;;;;;;;;;;;;;22.50;47.01;95177.28;10437475;28;2380;-59
2023/10/14 02:00:37;;;;;;;;;;;;;;;22.50;47.07;95170.13;10441528;28;2229;-59
2023/10/14 02:05:40;;;;;;;;;;;;;;;22.49;46.77;95163.28;10442757;28;2087;-59
2023/10/14 02:10:46;;;;;;;;;;;;;;;22.50;47.01;95153.53;10438078;28;1967;-59
2023/10/14 02:15:46;;;;;;;;;;;;;;;22.50;46.93;95156.16;10437516;28;1947;-59
2023/10/14 02:20:56;;;;;;;;;;;;;;;22.49;46.80;95170.44;10443598;28;1917;-59
2023/10/14 02:25:59;;;;;;;;;;;;;;;22.49;47.05;95168.56;10438015;28;1971;-59
2023/10/14 02:31:00;;;;;;;;;;;;;;;22.49;47.01;95168.56;10439882;28;2610;-59
2023/10/14 02:36:01;;;;;;;;;;;;;;;22.49;46.91;95168.56;10435560;28;2263;-59
2023/10/14 02:41:04;;;;;;;;;;;;;;;22.50;46.96;95169.38;10439377;28;1975;-59
2023/10/14 02:46:04;;;;;;;;;;;;;;;22.49;47.13;95167.78;10434201;28;4583;-59
2023/10/14 02:51:06;;;;;;;;;;;;;;;22.49;47.14;95173.88;10436467;28;2084;-59
2023/10/14 02:56:07;;;;;;;;;;;;;;;22.48;47.18;95169.66;10432942;28;2019;-59
2023/10/14 03:01:12;;;;;;;;;;;;;;;22.48;47.06;95155.69;10435051;28;1951;-59
2023/10/14 03:06:14;;;;;;;;;;;;;;;22.48;47.08;95172.28;10438565;28;2029;-59
2023/10/14 03:11:21;;;;;;;;;;;;;;;22.49;47.08;95176.50;10438309;28;2027;-59
2023/10/14 03:16:22;;;;;;;;;;;;;;;22.48;46.97;95164.38;10437289;28;3025;-59
2023/10/14 03:21:23;;;;;;;;;;;;;;;22.48;47.04;95172.28;10433846;28;1976;-58
2023/10/14 03:26:31;;;;;;;;;;;;;;;22.49;47.11;95162.50;10440095;28;1955;-59
2023/10/14 03:31:35;;;;;;;;;;;;;;;22.47;47.00;95165.47;10437522;28;2147;-59
2023/10/14 03:36:35;;;;;;;;;;;;;;;22.47;46.92;95165.47;10435339;28;6247;-59
2023/10/14 03:41:42;;;;;;;;;;;;;;;22.48;46.94;95167.00;10433741;28;5410;-59
2023/10/14 03:46:42;;;;;;;;;;;;;;;22.47;47.06;95170.75;10440845;28;1944;-59
2023/10/14 03:51:43;;;;;;;;;;;;;;;22.47;46.88;95148.81;10438555;28;5497;-60
2023/10/14 03:56:46;;;;;;;;;;;;;;;22.46;47.03;95155.19;10439535;28;2040;-59
2023/10/14 04:01:54;;;;;;;;;;;;;;;22.46;47.07;95150.69;10439128;28;1928;-59
2023/10/14 04:12:00;;;;;;;;;;;;;;;22.45;46.79;95148.34;10440466;28;1987;-58
2023/10/14 04:17:10;;;;;;;;;;;;;;;22.44;47.15;95129.06;10439391;28;1943;-59
2023/10/14 04:22:30;;;;;;;;;;;;;;;22.45;47.13;95143.06;10436130;28;2402;-59
2023/10/14 04:27:33;;;;;;;;;;;;;;;22.45;46.96;95140.41;10434046;28;1920;-59
2023/10/14 04:32:47;;;;;;;;;;;;;;;22.45;46.80;95149.13;10429272;28;2111;-59
2023/10/14 04:37:53;;;;;;;;;;;;;;;22.45;46.96;95146.50;10436246;28;2042;-59
2023/10/14 04:42:56;;;;;;;;;;;;;;;22.46;46.88;95137.47;10429233;28;5060;-58
2023/10/14 04:47:57;;;;;;;;;;;;;;;22.48;47.13;95143.22;10431304;28;2215;-59
2023/10/14 04:52:59;;;;;;;;;;;;;;;22.50;46.75;95127.88;10432557;28;2142;-59
2023/10/14 05:03:06;;;;;;;;;;;;;;;22.52;46.28;95120.41;10438141;28;1914;-59
2023/10/14 05:08:06;;;;;;;;;;;;;;;22.54;46.08;95126.22;10428149;28;2588;-57
2023/10/14 05:13:09;;;;;;;;;;;;;;;22.60;45.36;95121.63;10428999;28;1497;-58
2023/10/14 05:18:16;;;;;;;;;;;;;;;22.63;45.16;95121.78;10438037;28;1626;-59
2023/10/14 05:23:19;;;;;;;;;;;;;;;22.62;45.12;95125.53;10439838;28;1902;-58
2023/10/14 05:28:22;;;;;;;;;;;;;;;22.63;45.19;95105.94;10434478;28;1415;-59
2023/10/14 05:33:24;;;;;;;;;;;;;;;22.64;44.88;95118.06;10436376;28;1384;-59
2023/10/14 05:38:24;;;;;;;;;;;;;;;22.65;44.89;95118.84;10442668;28;1872;-59
2023/10/14 05:43:24;;;;;;;;;;;;;;;22.67;44.94;95130.66;10434102;28;5045;-59
2023/10/14 05:48:30;;;;;;;;;;;;;;;22.73;44.65;95135.84;10441618;28;1511;-58
2023/10/14 05:53:33;;;;;;;;;;;;;;;22.70;44.89;95147.00;10430677;28;2408;-59
2023/10/14 05:58:34;;;;;;;;;;;;;;;22.71;44.77;95145.94;10434174;28;1658;-59
2023/10/14 06:03:34;;;;;;;;;;;;;;;22.70;44.85;95157.56;10436731;28;1898;-59
2023/10/14 06:08:34;;;;;;;;;;;;;;;22.73;44.63;95156.97;10438883;28;1850;-59
2023/10/14 06:13:34;;;;;;;;;;;;;;;22.73;44.66;95155.09;10435991;28;1548;-59
2023/10/14 06:18:35;;;;;;;;;;;;;;;22.77;44.56;95174.56;10435542;28;1508;-59
2023/10/14 06:23:39;;;;;;;;;;;;;;;22.80;44.50;95178.44;10437233;28;1932;-59
2023/10/14 06:28:42;;;;;;;;;;;;;;;22.79;44.52;95190.13;10435779;28;1686;-59
2023/10/14 06:33:43;;;;;;;;;;;;;;;22.79;44.45;95190.13;10438443;28;1511;-58
2023/10/14 06:38:46;;;;;;;;;;;;;;;22.76;44.62;95190.72;10435107;28;2410;-59
2023/10/14 06:43:55;;;;;;;;;;;;;;;22.73;44.92;95193.97;10428294;28;1969;-59
2023/10/14 06:48:56;;;;;;;;;;;;;;;22.70;44.89;95202.47;10434106;28;1566;-59
2023/10/14 06:53:56;;;;;;;;;;;;;;;22.69;44.66;95206.22;10434640;28;1793;-59
2023/10/14 06:58:56;;;;;;;;;;;;;;;22.68;44.96;95213.34;10431859;28;1926;-58
2023/10/14 07:03:57;;;;;;;;;;;;;;;22.68;45.08;95221.28;10433469;28;1910;-59
2023/10/14 07:08:57;;;;;;;;;;;;;;;22.73;45.02;95226.44;10433322;28;2061;-59
2023/10/14 07:13:58;;;;;;;;;;;;;;;22.76;44.93;95230.34;10431859;28;2014;-58
2023/10/14 07:18:58;;;;;;;;;;;;;;;22.79;44.73;95227.91;10432556;28;1859;-59
2023/10/14 07:24:05;;;;;;;;;;;;;;;22.82;44.70;95229.13;10433373;28;2360;-57
2023/10/14 07:29:05;;;;;;;;;;;;;;;22.77;44.69;95231.91;10431848;28;1897;-57
2023/10/14 07:34:08;;;;;;;;;;;;;;;22.75;44.70;95242.00;10428721;28;1958;-57
2023/10/14 07:39:30;;;;;;;;;;;;;;;22.76;44.53;95236.41;10423995;28;1853;-55
2023/10/14 07:44:29;;;;;;;;;;;;;;;22.75;44.58;95249.94;10429568;28;5321;-56
2023/10/14 07:49:30;;;;;;;;;;;;;;;22.78;44.57;95244.03;10429860;28;1807;-57
2023/10/14 07:54:30;;;;;;;;;;;;;;;22.78;44.45;95249.31;10428514;28;2172;-56
2023/10/14 07:59:34;;;;;;;;;;;;;;;22.79;44.66;95243.75;10432799;28;2094;-55
2023/10/14 08:04:34;;;;;;;;;;;;;;;22.84;44.71;95224.34;10431427;28;1906;-58
2023/10/14 08:09:39;;;;;;;;;;;;;;;22.82;45.02;95218.56;10426122;28;2793;-57
2023/10/14 08:14:39;;;;;;;;;;;;;;;22.79;44.96;95229.75;10427066;28;1508;-57
2023/10/14 08:19:39;;;;;;;;;;;;;;;22.76;44.95;95239.06;10433340;28;1493;-57
2023/10/14 08:24:39;;;;;;;;;;;;;;;22.74;45.17;95245.72;10428334;28;1981;-57
2023/10/14 08:29:41;;;;;;;;;;;;;;;22.72;45.10;95246.03;10432849;28;1571;-56
2023/10/14 08:34:41;;;;;;;;;;;;;;;22.70;45.20;95250.03;10433698;28;1471;-57
2023/10/14 08:39:44;;;;;;;;;;;;;;;22.67;45.53;95249.56;10434949;28;1481;-58
2023/10/14 08:44:44;;;;;;;;;;;;;;;22.67;45.38;95253.28;10434173;28;5113;-58
2023/10/14 08:49:44;;;;;;;;;;;;;;;22.65;45.76;95249.06;10433394;28;1475;-57
2023/10/14 08:54:46;;;;;;;;;;;;;;;22.64;45.44;95263.38;10432552;28;2278;-57
2023/10/14 08:59:46;;;;;;;;;;;;;;;22.62;45.63;95270.81;10427922;28;1472;-58
2023/10/14 09:04:47;;;;;;;;;;;;;;;22.63;45.47;95272.38;10439195;28;1991;-58
2023/10/14 09:09:48;;;;;;;;;;;;;;;22.62;45.86;95284.03;10442489;28;1945;-57
2023/10/14 09:14:52;;;;;;;;;;;;;;;22.61;45.58;95292.22;10441105;28;1543;-57
2023/10/14 09:19:53;;;;;;;;;;;;;;;22.62;45.58;95291.16;10441060;28;1412;-57
2023/10/14 09:24:58;;;;;;;;;;;;;;;22.61;45.70;95286.94;10441203;28;1910;-58
2023/10/14 09:29:59;;;;;;;;;;;;;;;22.62;46.15;95291.94;10441170;28;1495;-57
2023/10/14 09:34:59;;;;;;;;;;;;;;;22.61;46.08;95285.09;10446267;28;1531;-56
2023/10/14 09:40:00;;;;;;;;;;;;;;;22.61;45.81;95303.59;10443132;28;2381;-57
2023/10/14 09:45:10;;;;;;;;;;;;;;;22.60;45.98;95294.09;10444400;28;5401;-56
2023/10/14 09:50:13;;;;;;;;;;;;;;;22.60;45.58;95307.31;10443069;28;1564;-57
2023/10/14 09:55:14;;;;;;;;;;;;;;;22.61;45.77;95305.44;10441250;28;1890;-52
2023/10/14 10:00:16;;;;;;;;;;;;;;;22.60;45.69;95288.81;10443400;28;1625;-58
2023/10/14 10:05:19;;;;;;;;;;;;;;;22.61;45.64;95294.88;10442330;28;1914;-58
2023/10/14 10:10:25;;;;;;;;;;;;;;;22.62;45.76;95301.72;10441201;28;2039;-57
2023/10/14 10:15:25;;;;;;;;;;;;;;;22.60;45.41;95299.38;10433832;28;1580;-58
2023/10/14 10:20:35;;;;;;;;;;;;;;;22.63;45.64;95298.00;10439164;28;1466;-58
2023/10/14 10:25:36;;;;;;;;;;;;;;;22.62;45.98;95289.31;10444707;28;2443;-58
2023/10/14 10:30:42;;;;;;;;;;;;;;;22.63;46.08;95288.22;10438816;28;1963;-58
2023/10/14 10:35:56;;;;;;;;;;;;;;;22.65;46.37;95298.47;10439078;28;1894;-58
2023/10/14 10:41:15;;;;;;;;;;;;;;;22.65;45.96;95288.69;10436030;28;4919;-58
2023/10/14 10:46:51;;;;;;;;;;;;;;;22.67;46.26;95285.75;10434062;28;1958;-58
2023/10/14 10:52:13;;;;;;;;;;;;;;;22.67;46.36;95279.72;10353969;28;1929;-58
2023/10/14 10:57:13;;;;;;;;;;;;;;;22.67;46.35;95277.81;10426719;28;1931;-58
2023/10/14 11:02:13;;;;;;;;;;;;;;;22.67;46.40;95281.25;10434808;28;2108;-58
2023/10/14 11:07:14;;;;;;;;;;;;;;;22.68;46.57;95268.84;10433118;28;2105;-58
2023/10/14 11:12:14;;;;;;;;;;;;;;;22.70;46.79;95269.31;10433816;28;2660;-57
2023/10/14 11:17:14;;;;;;;;;;;;;;;22.72;46.64;95250.50;10435200;28;1889;-56
2023/10/14 11:22:16;;;;;;;;;;;;;;;22.73;46.88;95247.56;10434384;28;1998;-57
2023/10/14 11:27:16;;;;;;;;;;;;;;;22.74;46.90;95238.56;10436214;28;1860;-58
2023/10/14 11:32:16;;;;;;;;;;;;;;;22.75;47.09;95229.56;10421859;28;1921;-58
2023/10/14 11:37:17;;;;;;;;;;;;;;;22.77;46.99;95235.34;10429651;28;1834;-57
2023/10/14 11:42:17;;;;;;;;;;;;;;;22.78;47.16;95234.25;10433243;28;1914;-57
2023/10/14 11:47:19;;;;;;;;;;;;;;;22.78;47.18;95225.53;10430305;28;1964;-56
2023/10/14 11:52:21;;;;;;;;;;;;;;;22.79;47.16;95219.19;10432214;28;1858;-56
2023/10/14 11:57:21;;;;;;;;;;;;;;;22.79;47.24;95219.97;10436514;28;2705;-58
2023/10/14 12:02:23;;;;;;;;;;;;;;;22.80;47.27;95204.88;10430296;28;1918;-58
2023/10/14 12:07:23;;;;;;;;;;;;;;;22.81;47.15;95209.88;10430883;28;1819;-57
2023/10/14 12:12:24;;;;;;;;;;;;;;;22.82;47.14;95206.16;10429139;28;1890;-56
2023/10/14 12:17:24;;;;;;;;;;;;;;;22.84;47.48;95208.47;10432724;28;2137;-56
2023/10/14 12:22:24;;;;;;;;;;;;;;;22.85;47.16;95202.13;10433826;28;1973;-55
2023/10/14 12:27:25;;;;;;;;;;;;;;;22.85;47.00;95199.47;10435726;28;1881;-56
2023/10/14 12:32:28;;;;;;;;;;;;;;;22.84;47.02;95195.28;10433991;28;2053;-56
2023/10/14 12:37:30;;;;;;;;;;;;;;;22.84;47.04;95190.78;10437285;28;1953;-55
2023/10/14 12:42:46;;;;;;;;;;;;;;;22.84;46.98;95187.34;10431630;28;5019;-56
2023/10/14 12:47:48;;;;;;;;;;;;;;;22.84;46.85;95189.97;10434788;28;1877;-55
2023/10/14 12:52:49;;;;;;;;;;;;;;;22.83;46.93;95185.78;10432668;28;1862;-54
2023/10/14 12:57:50;;;;;;;;;;;;;;;22.82;47.03;95186.88;10438780;28;1569;-57
2023/10/14 13:02:53;;;;;;;;;;;;;;;22.82;47.26;95192.16;10443077;28;1910;-57
2023/10/14 13:07:54;;;;;;;;;;;;;;;22.82;46.77;95198.22;10431661;28;1789;-57
2023/10/14 13:12:55;;;;;;;;;;;;;;;22.82;46.86;95208.00;10439380;28;1863;-58
2023/10/14 13:17:58;;;;;;;;;;;;;;;22.81;47.28;95220.44;10441455;28;1487;-56
2023/10/14 13:22:59;;;;;;;;;;;;;;;22.82;46.96;95221.22;10438731;28;1917;-57
2023/10/14 13:28:02;;;;;;;;;;;;;;;22.82;47.32;95229.94;10452530;28;1485;-57
2023/10/14 13:33:03;;;;;;;;;;;;;;;22.83;47.10;95225.44;10431853;28;1808;-55
2023/10/14 13:38:08;;;;;;;;;;;;;;;22.83;47.41;95242.06;10431845;28;1525;-56
2023/10/14 13:43:09;;;;;;;;;;;;;;;22.84;47.45;95224.34;10430148;28;2730;-56
2023/10/14 13:48:09;;;;;;;;;;;;;;;22.84;47.40;95221.69;10434006;28;1620;-55
2023/10/14 13:53:12;;;;;;;;;;;;;;;22.82;47.25;95224.66;10433330;28;1961;-57
2023/10/14 13:58:13;;;;;;;;;;;;;;;22.81;47.27;95219.66;10436518;28;1647;-58
2023/10/14 14:03:14;;;;;;;;;;;;;;;22.81;47.33;95225.75;10444638;28;2002;-57
2023/10/14 14:08:15;;;;;;;;;;;;;;;22.80;47.42;95208.31;10439108;28;1520;-57
2023/10/14 14:13:20;;;;;;;;;;;;;;;22.80;46.99;95232.09;10442452;28;1552;-57
2023/10/14 14:18:20;;;;;;;;;;;;;;;22.80;47.23;95223.38;10442067;28;1472;-57
2023/10/14 14:23:21;;;;;;;;;;;;;;;22.80;47.14;95242.66;10438722;28;1914;-57
2023/10/14 14:28:22;;;;;;;;;;;;;;;22.80;47.19;95261.16;10446921;28;2765;-56
2023/10/14 14:33:22;;;;;;;;;;;;;;;22.81;47.30;95283.09;10442225;28;1817;-57
2023/10/14 14:38:23;;;;;;;;;;;;;;;22.81;47.16;95272.50;10437251;28;1571;-57
2023/10/14 14:43:23;;;;;;;;;;;;;;;22.81;47.22;95289.16;10429630;28;5101;-55
2023/10/14 14:48:23;;;;;;;;;;;;;;;22.81;47.23;95264.59;10436611;28;1475;-55
2023/10/14 14:53:25;;;;;;;;;;;;;;;22.82;47.23;95260.84;10436414;28;1486;-55
2023/10/14 14:58:25;;;;;;;;;;;;;;;22.82;47.26;95259.00;10438560;28;1608;-56
2023/10/14 15:03:25;;;;;;;;;;;;;;;22.81;47.34;95262.72;10438796;28;2067;-57
2023/10/14 15:08:25;;;;;;;;;;;;;;;22.83;47.36;95347.78;10437546;28;1626;-58
2023/10/14 15:13:26;;;;;;;;;;;;;;;22.83;47.43;95325.84;10432334;28;2531;-58
2023/10/14 15:18:26;;;;;;;;;;;;;;;22.82;47.52;95303.91;10436375;28;1548;-57
2023/10/14 15:23:26;;;;;;;;;;;;;;;22.83;47.24;95331.94;10430342;28;1906;-58
2023/10/14 15:28:26;;;;;;;;;;;;;;;22.84;47.11;95361.75;10417066;28;2602;-57
2023/10/14 15:33:27;;;;;;;;;;;;;;;22.84;47.36;95390.81;10414172;28;2744;-58
2023/10/14 15:38:28;;;;;;;;;;;;;;;22.82;47.32;95364.69;10411872;28;2660;-56
2023/10/14 15:43:28;;;;;;;;;;;;;;;22.82;47.37;95361.28;10414213;28;5118;-58
2023/10/14 15:48:33;;;;;;;;;;;;;;;22.81;47.44;95373.72;10417269;28;2585;-57
2023/10/14 15:53:33;;;;;;;;;;;;;;;22.82;47.44;95379.75;10415726;28;2659;-58
2023/10/14 15:58:34;;;;;;;;;;;;;;;22.80;47.51;95372.16;10418415;28;2594;-58
2023/10/14 16:03:34;;;;;;;;;;;;;;;22.81;47.44;95404.66;10418285;28;2607;-56
2023/10/14 16:08:36;;;;;;;;;;;;;;;22.81;47.14;95412.56;10417144;28;2684;-56
2023/10/14 16:13:36;;;;;;;;;;;;;;;22.79;47.10;95412.88;10419890;28;2643;-57
2023/10/14 16:18:37;;;;;;;;;;;;;;;22.79;47.20;95428.72;10418179;28;2605;-58
2023/10/14 16:23:38;;;;;;;;;;;;;;;22.79;47.04;95412.09;10410834;28;2682;-57
2023/10/14 16:28:38;;;;;;;;;;;;;;;22.78;47.10;95429.78;10418043;28;2599;-57
2023/10/14 16:33:39;;;;;;;;;;;;;;;22.79;47.11;95446.44;10417549;28;3063;-57
2023/10/14 16:38:43;;;;;;;;;;;;;;;22.78;47.15;95464.16;10416560;28;2607;-57
2023/10/14 16:43:44;;;;;;;;;;;;;;;22.78;46.95;95476.56;10420302;28;5153;-56
2023/10/14 16:48:45;;;;;;;;;;;;;;;22.77;46.99;95496.94;10417026;28;2748;-56
2023/10/14 16:53:48;;;;;;;;;;;;;;;22.76;46.95;95490.09;10416717;28;2630;-55
2023/10/14 16:58:49;;;;;;;;;;;;;;;22.76;46.76;95481.38;10416997;28;2624;-56
2023/10/14 17:03:49;;;;;;;;;;;;;;;22.77;46.90;95485.59;10417643;28;2704;-56
2023/10/14 17:08:50;;;;;;;;;;;;;;;22.75;47.10;95493.03;10415572;28;2740;-58
2023/10/14 17:13:50;;;;;;;;;;;;;;;22.76;47.05;95521.00;10422790;28;2609;-57
2023/10/14 17:18:50;;;;;;;;;;;;;;;22.74;46.80;95516.03;10416983;28;2646;-58
2023/10/14 17:23:51;;;;;;;;;;;;;;;22.73;46.96;95517.06;10416643;28;2722;-57
2023/10/14 17:28:51;;;;;;;;;;;;;;;22.74;46.95;95523.94;10422041;28;2659;-54
2023/10/14 17:33:52;;;;;;;;;;;;;;;22.74;46.87;95549.56;10425271;28;2687;-51
2023/10/14 17:38:52;;;;;;;;;;;;;;;22.74;46.95;95565.44;10423218;28;2646;-57
2023/10/14 17:43:54;;;;;;;;;;;;;;;22.73;46.83;95574.44;10424046;28;5503;-57
2023/10/14 17:48:55;;;;;;;;;;;;;;;22.72;46.64;95594.78;10422875;28;2710;-57
2023/10/14 17:53:55;;;;;;;;;;;;;;;22.73;46.60;95606.16;10422277;28;2690;-57
2023/10/14 17:58:57;;;;;;;;;;;;;;;22.73;46.64;95611.44;10422142;28;2654;-58
2023/10/14 18:03:57;;;;;;;;;;;;;;;22.74;46.66;95628.84;10421422;28;2995;-58
2023/10/14 18:08:58;;;;;;;;;;;;;;;22.72;46.69;95609.84;10420752;28;2682;-57
2023/10/14 18:14:00;;;;;;;;;;;;;;;22.72;46.69;95631.00;10427440;28;2658;-57
2023/10/14 18:19:00;;;;;;;;;;;;;;;22.71;46.64;95630.22;10421089;28;2603;-57
2023/10/14 18:24:00;;;;;;;;;;;;;;;22.70;46.44;95649.78;10420755;28;2666;-56
2023/10/14 18:29:00;;;;;;;;;;;;;;;22.71;46.44;95655.88;10423120;28;2620;-57
2023/10/14 18:34:02;;;;;;;;;;;;;;;22.70;46.49;95664.84;10422749;28;2622;-57
2023/10/14 18:39:02;;;;;;;;;;;;;;;22.70;46.34;95670.13;10420662;28;2636;-57
2023/10/14 18:44:02;;;;;;;;;;;;;;;22.70;46.56;95688.63;10419874;28;5122;-57
2023/10/14 18:49:03;;;;;;;;;;;;;;;22.67;46.44;95685.50;10420209;28;2666;-57
2023/10/14 18:54:06;;;;;;;;;;;;;;;22.69;46.31;95705.56;10420970;28;2663;-56
2023/10/14 18:59:06;;;;;;;;;;;;;;;22.67;46.54;95725.13;10419564;28;2807;-56
2023/10/14 19:04:06;;;;;;;;;;;;;;;22.67;46.52;95722.50;10423473;28;2696;-58
2023/10/14 19:09:06;;;;;;;;;;;;;;;22.67;46.17;95728.88;10422102;28;2691;-57
2023/10/14 19:14:07;;;;;;;;;;;;;;;22.67;46.33;95739.44;10425136;28;2765;-57
2023/10/14 19:19:07;;;;;;;;;;;;;;;22.65;46.11;95758.97;10421824;28;2670;-58
2023/10/14 19:24:08;;;;;;;;;;;;;;;22.64;46.17;95756.63;10417230;28;2688;-57
2023/10/14 19:29:08;;;;;;;;;;;;;;;22.64;46.27;95770.63;10423548;28;2558;-57
2023/10/14 19:34:10;;;;;;;;;;;;;;;22.63;46.06;95765.63;10419125;28;2676;-58
2023/10/14 19:39:10;;;;;;;;;;;;;;;22.62;46.05;95764.84;10420515;28;2568;-57
2023/10/14 19:44:10;;;;;;;;;;;;;;;22.62;46.26;95782.56;10419145;28;5065;-57
2023/10/14 19:49:10;;;;;;;;;;;;;;;22.62;46.13;95791.28;10420606;28;2733;-57
2023/10/14 19:54:12;;;;;;;;;;;;;;;22.61;46.00;95776.47;10415461;28;2875;-56
2023/10/14 19:59:12;;;;;;;;;;;;;;;22.60;45.91;95785.50;10415672;28;2613;-58
2023/10/14 20:04:12;;;;;;;;;;;;;;;22.61;46.01;95810.81;10419204;28;2678;-57
2023/10/14 20:09:13;;;;;;;;;;;;;;;22.60;46.31;95819.03;10416963;28;2717;-57
2023/10/14 20:14:13;;;;;;;;;;;;;;;22.60;45.99;95830.41;10422349;28;2651;-58
2023/10/14 20:19:13;;;;;;;;;;;;;;;22.60;46.12;95819.84;10419596;28;2614;-57
2023/10/14 20:24:15;;;;;;;;;;;;;;;22.59;46.19;95839.38;10417543;28;2619;-57
2023/10/14 20:29:15;;;;;;;;;;;;;;;22.60;45.98;95850.75;10412105;28;2597;-63
2023/10/14 20:34:18;;;;;;;;;;;;;;;22.59;45.78;95852.59;10414501;28;2758;-57
2023/10/14 20:39:28;;;;;;;;;;;;;;;22.59;45.80;95862.38;10416280;28;2656;-58
2023/10/14 20:44:32;;;;;;;;;;;;;;;22.58;45.77;95861.59;10418841;28;5296;-56
2023/10/14 20:49:32;;;;;;;;;;;;;;;22.57;45.98;95862.63;10417385;28;2936;-57
2023/10/14 20:54:32;;;;;;;;;;;;;;;22.57;45.82;95865.28;10415836;28;2726;-57
2023/10/14 20:59:34;;;;;;;;;;;;;;;22.56;45.75;95862.94;10413721;28;2610;-57
2023/10/14 21:04:35;;;;;;;;;;;;;;;22.54;45.73;95868.50;10424175;28;2591;-57
2023/10/14 21:09:35;;;;;;;;;;;;;;;22.55;45.81;95885.91;10426873;28;2559;-58
2023/10/14 21:14:36;;;;;;;;;;;;;;;22.55;45.65;95893.03;10429401;28;2667;-57
2023/10/14 21:19:37;;;;;;;;;;;;;;;22.55;45.76;95891.19;10422395;28;2591;-54
2023/10/14 21:24:37;;;;;;;;;;;;;;;22.53;45.66;95890.69;10421501;28;2658;-56
2023/10/14 21:29:37;;;;;;;;;;;;;;;22.54;45.86;95897.56;10427041;28;2922;-55
2023/10/14 21:34:38;;;;;;;;;;;;;;;22.53;45.50;95884.59;10422159;28;2630;-56
2023/10/14 21:39:38;;;;;;;;;;;;;;;22.52;45.57;95870.59;10423435;28;2746;-56
2023/10/14 21:44:38;;;;;;;;;;;;;;;22.52;45.62;95867.19;10424584;28;5065;-56
2023/10/14 21:49:39;;;;;;;;;;;;;;;22.51;45.54;95861.13;10423306;28;2676;-57
2023/10/14 21:54:40;;;;;;;;;;;;;;;22.51;45.56;95860.31;10421956;28;2707;-55
2023/10/14 21:59:40;;;;;;;;;;;;;;;22.51;45.48;95860.31;10423097;28;2625;-56
2023/10/14 22:04:40;;;;;;;;;;;;;;;22.50;45.72;95859.53;10422451;28;2669;-56
2023/10/14 22:09:40;;;;;;;;;;;;;;;22.50;45.78;95872.75;10422294;28;2682;-55
2023/10/14 22:14:41;;;;;;;;;;;;;;;22.50;45.69;95861.41;10423082;28;2598;-56
2023/10/14 22:19:42;;;;;;;;;;;;;;;22.50;45.58;95871.97;10421689;28;2575;-56
2023/10/14 22:24:45;;;;;;;;;;;;;;;22.49;45.76;95859.81;10422954;28;2665;-56
2023/10/14 22:29:46;;;;;;;;;;;;;;;22.48;45.73;95863.56;10419980;28;2606;-57
2023/10/14 22:34:46;;;;;;;;;;;;;;;22.47;45.51;95859.31;10415215;28;2649;-56
2023/10/14 22:39:46;;;;;;;;;;;;;;;22.47;45.72;95861.97;10422580;28;2584;-54
2023/10/14 22:44:46;;;;;;;;;;;;;;;22.46;45.46;95855.88;10422852;28;5081;-56
2023/10/14 22:49:47;;;;;;;;;;;;;;;22.46;45.50;95855.88;10421221;28;2743;-56
2023/10/14 22:54:48;;;;;;;;;;;;;;;22.46;45.33;95865.69;10415324;28;2656;-55
2023/10/14 22:59:49;;;;;;;;;;;;;;;22.45;45.30;95854.34;10418784;28;2941;-56
2023/10/14 23:04:51;;;;;;;;;;;;;;;22.44;45.17;95852.75;10420706;28;2666;-55
2023/10/14 23:09:52;;;;;;;;;;;;;;;22.44;45.21;95844.81;10419216;28;2664;-56
2023/10/14 23:14:52;;;;;;;;;;;;;;;22.44;45.24;95841.41;10426136;28;2692;-57
2023/10/14 23:19:54;;;;;;;;;;;;;;;22.41;45.12;95821.63;10425336;28;2655;-58
2023/10/14 23:24:56;;;;;;;;;;;;;;;22.43;45.08;95837.19;10417998;28;2623;-55
2023/10/14 23:29:57;;;;;;;;;;;;;;;22.41;45.09;95837.47;10423227;28;2587;-56
2023/10/14 23:34:57;;;;;;;;;;;;;;;22.42;45.10;95846.19;10434043;28;2670;-57
2023/10/14 23:39:57;;;;;;;;;;;;;;;22.41;45.33;95832.19;10417755;28;2644;-56
2023/10/14 23:44:57;;;;;;;;;;;;;;;22.40;45.00;95830.59;10418773;28;5180;-57
2023/10/14 23:49:58;;;;;;;;;;;;;;;22.40;45.06;95840.41;10418652;28;2619;-56
2023/10/14 23:54:58;;;;;;;;;;;;;;;22.40;45.20;95841.16;10418070;28;2659;-56
